Time;durP1;ratioP1;P1;durP2;ratioP2;P2;SDS_P1;SDS_P2;PMS_P1;PMS_P2;Temp;Humidity;BMP_temperature;BMP_pressure;BME280_temperature;BME280_humidity;BME280_pressure;Samples;Min_cycle;Max_cycle;Signal;HPM_P1;HPM_P2
2023/05/22 00:00:23;;;;;;;;;;;22.30;58.10;;;;;;5094057;27;43038;-76
2023/05/22 00:02:49;;;;;;;;;;;22.20;57.20;;;;;;5089707;27;42965;-76
2023/05/22 00:05:17;;;;;;;;;;;22.20;57.20;;;;;;5095312;27;43594;-78
2023/05/22 00:07:42;;;;;;;;;;;22.20;58.60;;;;;;5091584;27;43885;-79
2023/05/22 00:10:08;;;;;;;;;;;22.20;58.00;;;;;;5097118;27;43278;-80
2023/05/22 00:12:34;;;;;;;;;;;22.20;57.80;;;;;;5088208;27;43023;-76
2023/05/22 00:15:00;;;;;;;;;;;22.20;58.00;;;;;;5093690;27;43619;-79
2023/05/22 00:17:25;;;;;;;;;;;22.20;58.60;;;;;;5097390;27;43000;-80
2023/05/22 00:19:52;;;;;;;;;;;22.20;58.00;;;;;;5097710;27;43394;-81
2023/05/22 00:22:18;;;;;;;;;;;22.20;57.90;;;;;;5084611;27;43138;-77
2023/05/22 00:24:43;;;;;;;;;;;22.20;58.10;;;;;;5085214;27;43382;-78
2023/05/22 00:27:09;;;;;;;;;;;22.20;58.00;;;;;;5091440;27;42918;-75
2023/05/22 00:29:35;;;;;;;;;;;22.20;58.30;;;;;;5083411;27;43826;-80
2023/05/22 00:32:00;;;;;;;;;;;22.30;58.10;;;;;;5095482;27;42918;-77
2023/05/22 00:34:26;;;;;;;;;;;22.20;58.10;;;;;;5088395;27;43489;-77
2023/05/22 00:36:51;;;;;;;;;;;22.20;58.20;;;;;;5095069;27;43008;-75
2023/05/22 00:39:17;;;;;;;;;;;22.20;57.60;;;;;;5089929;27;42903;-75
2023/05/22 00:41:42;;;;;;;;;;;22.20;58.30;;;;;;5075095;27;43106;-75
2023/05/22 00:44:09;;;;;;;;;;;22.20;57.70;;;;;;5100618;27;43381;-76
2023/05/22 00:46:35;;;;;;;;;;;22.20;57.70;;;;;;5095147;27;42943;-80
2023/05/22 00:49:00;;;;;;;;;;;22.20;58.20;;;;;;5086653;27;43420;-77
2023/05/22 00:51:26;;;;;;;;;;;22.20;57.70;;;;;;5094803;27;42933;-75
2023/05/22 00:53:53;;;;;;;;;;;22.20;58.20;;;;;;5096616;27;43575;-76
2023/05/22 00:56:20;;;;;;;;;;;22.20;58.20;;;;;;5098713;27;43439;-76
2023/05/22 00:58:45;;;;;;;;;;;22.20;58.30;;;;;;5099237;27;43313;-77
2023/05/22 01:01:11;;;;;;;;;;;22.20;58.50;;;;;;5093893;27;43246;-75
2023/05/22 01:03:43;;;;;;;;;;;22.20;57.80;;;;;;5074592;28;44281;-76
2023/05/22 01:06:12;;;;;;;;;;;22.20;58.40;;;;;;5095438;27;43087;-76
2023/05/22 01:08:37;;;;;;;;;;;22.30;58.50;;;;;;5095996;27;43373;-75
2023/05/22 01:11:05;;;;;;;;;;;22.20;57.90;;;;;;5094512;27;43189;-81
2023/05/22 01:13:41;;;;;;;;;;;22.20;58.50;;;;;;5095059;27;42996;-79
2023/05/22 01:16:22;;;;;;;;;;;22.20;58.30;;;;;;5081282;27;42971;-76
2023/05/22 01:19:03;;;;;;;;;;;22.20;58.30;;;;;;5084071;27;43618;-77
2023/05/22 01:21:28;;;;;;;;;;;22.30;58.40;;;;;;5087390;27;42927;-75
2023/05/22 01:24:12;;;;;;;;;;;22.20;58.90;;;;;;5081724;27;43996;-77
2023/05/22 01:26:47;;;;;;;;;;;22.20;58.30;;;;;;5086849;27;43253;-78
2023/05/22 01:29:35;;;;;;;;;;;22.20;58.60;;;;;;5087261;27;43023;-76
2023/05/22 01:32:01;;;;;;;;;;;22.30;58.40;;;;;;5091467;27;43207;-75
2023/05/22 01:34:29;;;;;;;;;;;22.30;58.70;;;;;;5096394;27;43006;-80
2023/05/22 01:36:55;;;;;;;;;;;22.30;58.70;;;;;;5084389;27;43129;-75
2023/05/22 01:39:21;;;;;;;;;;;22.40;58.90;;;;;;5087031;27;43305;-75
2023/05/22 01:41:47;;;;;;;;;;;22.30;58.80;;;;;;5064819;27;43044;-76
2023/05/22 01:44:12;;;;;;;;;;;22.30;58.10;;;;;;5082361;27;43340;-80
2023/05/22 01:46:38;;;;;;;;;;;22.20;58.70;;;;;;5083994;27;42962;-77
2023/05/22 01:49:03;;;;;;;;;;;22.20;58.80;;;;;;5091958;27;43175;-80
2023/05/22 01:51:30;;;;;;;;;;;22.30;58.60;;;;;;5095667;27;42989;-76
2023/05/22 01:54:04;;;;;;;;;;;22.30;58.80;;;;;;5098367;27;43635;-81
2023/05/22 01:56:50;;;;;;;;;;;22.30;58.60;;;;;;5102287;27;43129;-79
2023/05/22 01:59:24;;;;;;;;;;;22.30;58.60;;;;;;5107423;27;43548;-80
2023/05/22 02:01:50;;;;;;;;;;;22.30;58.60;;;;;;5093351;27;43349;-80
2023/05/22 02:04:16;;;;;;;;;;;22.20;58.80;;;;;;5098336;27;43887;-81
2023/05/22 02:06:43;;;;;;;;;;;22.30;59.00;;;;;;5085489;27;43040;-81
2023/05/22 02:09:09;;;;;;;;;;;22.30;58.80;;;;;;5088867;27;43045;-80
2023/05/22 02:11:36;;;;;;;;;;;22.30;59.00;;;;;;5105830;27;43824;-80
2023/05/22 02:14:02;;;;;;;;;;;22.30;59.20;;;;;;5093592;27;43565;-79
2023/05/22 02:16:29;;;;;;;;;;;22.30;59.60;;;;;;5086991;27;42982;-78
2023/05/22 02:19:01;;;;;;;;;;;22.30;59.20;;;;;;5098520;27;42760;-80
2023/05/22 02:21:27;;;;;;;;;;;22.30;58.80;;;;;;5093847;27;42993;-80
2023/05/22 02:23:52;;;;;;;;;;;22.30;59.00;;;;;;5094658;27;43608;-75
2023/05/22 02:26:18;;;;;;;;;;;22.20;58.90;;;;;;5106142;27;43059;-76
2023/05/22 02:28:43;;;;;;;;;;;22.30;59.00;;;;;;5099416;27;43525;-80
2023/05/22 02:31:09;;;;;;;;;;;22.30;58.90;;;;;;5086976;27;42994;-76
2023/05/22 02:33:35;;;;;;;;;;;22.30;59.00;;;;;;5094907;27;43243;-77
2023/05/22 02:36:00;;;;;;;;;;;22.30;58.90;;;;;;5097800;27;43246;-80
2023/05/22 02:38:26;;;;;;;;;;;22.00;58.90;;;;;;5086156;27;43728;-75
2023/05/22 02:40:51;;;;;;;;;;;21.90;58.70;;;;;;5092628;27;42874;-79
2023/05/22 02:43:17;;;;;;;;;;;22.30;59.20;;;;;;5092087;27;43535;-76
2023/05/22 02:45:42;;;;;;;;;;;22.30;58.90;;;;;;5092079;27;42970;-81
2023/05/22 02:48:08;;;;;;;;;;;22.30;58.90;;;;;;5096870;27;43444;-80
2023/05/22 02:50:33;;;;;;;;;;;22.30;58.90;;;;;;5098906;27;43089;-76
2023/05/22 02:52:59;;;;;;;;;;;22.30;59.20;;;;;;5093779;27;43500;-77
2023/05/22 02:55:24;;;;;;;;;;;22.30;59.20;;;;;;5088526;27;43049;-78
2023/05/22 02:57:50;;;;;;;;;;;22.30;59.00;;;;;;5091283;27;43998;-76
2023/05/22 03:00:15;;;;;;;;;;;22.30;59.20;;;;;;5094317;27;42946;-76
2023/05/22 03:02:41;;;;;;;;;;;22.30;59.00;;;;;;5098815;27;43757;-77
2023/05/22 03:05:07;;;;;;;;;;;22.30;59.20;;;;;;5097217;27;43062;-76
2023/05/22 03:07:33;;;;;;;;;;;22.30;59.10;;;;;;5097820;27;43468;-79
2023/05/22 03:09:59;;;;;;;;;;;22.40;59.10;;;;;;5099757;27;42897;-78
2023/05/22 03:12:24;;;;;;;;;;;22.30;59.10;;;;;;5089361;27;42875;-76
2023/05/22 03:14:50;;;;;;;;;;;22.30;59.30;;;;;;5095937;27;42900;-76
2023/05/22 03:17:15;;;;;;;;;;;22.30;59.20;;;;;;5091950;27;43359;-77
2023/05/22 03:19:41;;;;;;;;;;;22.30;59.20;;;;;;5088542;27;42992;-80
2023/05/22 03:22:06;;;;;;;;;;;22.30;59.20;;;;;;5091081;27;42812;-76
2023/05/22 03:24:32;;;;;;;;;;;22.30;59.10;;;;;;5096385;27;43002;-76
2023/05/22 03:26:58;;;;;;;;;;;22.30;59.20;;;;;;5095229;27;42977;-75
2023/05/22 03:29:23;;;;;;;;;;;22.30;58.50;;;;;;5073736;27;42777;-77
2023/05/22 03:31:49;;;;;;;;;;;22.20;59.20;;;;;;5090144;27;42893;-76
2023/05/22 03:34:15;;;;;;;;;;;22.20;59.10;;;;;;5088012;27;43265;-77
2023/05/22 03:36:41;;;;;;;;;;;22.20;59.10;;;;;;5087181;27;43388;-76
2023/05/22 03:39:06;;;;;;;;;;;22.30;59.10;;;;;;5090017;27;42954;-78
2023/05/22 03:41:32;;;;;;;;;;;22.10;58.30;;;;;;5086223;27;43481;-76
2023/05/22 03:43:57;;;;;;;;;;;22.10;58.80;;;;;;5085600;27;43013;-77
2023/05/22 03:46:23;;;;;;;;;;;22.30;58.80;;;;;;5098982;27;43482;-76
2023/05/22 03:48:48;;;;;;;;;;;22.20;58.70;;;;;;5097052;27;43015;-75
2023/05/22 03:51:15;;;;;;;;;;;22.40;58.80;;;;;;5105351;27;43502;-75
2023/05/22 03:53:40;;;;;;;;;;;22.20;58.50;;;;;;5102590;27;43021;-75
2023/05/22 03:56:06;;;;;;;;;;;22.30;58.50;;;;;;5101146;27;43062;-75
2023/05/22 03:58:31;;;;;;;;;;;22.20;58.60;;;;;;5089121;27;43061;-77
2023/05/22 04:00:57;;;;;;;;;;;22.30;58.50;;;;;;5095925;27;43084;-77
2023/05/22 04:03:23;;;;;;;;;;;22.30;58.60;;;;;;5094569;27;42864;-76
2023/05/22 04:05:48;;;;;;;;;;;22.20;57.70;;;;;;5101655;27;42978;-76
2023/05/22 04:08:14;;;;;;;;;;;22.20;58.40;;;;;;5100676;27;43037;-76
2023/05/22 04:10:41;;;;;;;;;;;22.20;58.40;;;;;;5100335;27;43508;-76
2023/05/22 04:13:06;;;;;;;;;;;22.30;58.80;;;;;;5097649;27;42984;-76
2023/05/22 04:15:32;;;;;;;;;;;22.20;58.40;;;;;;5095039;27;43522;-76
2023/05/22 04:17:58;;;;;;;;;;;22.20;58.30;;;;;;5086847;27;43529;-75
2023/05/22 04:20:24;;;;;;;;;;;22.20;58.30;;;;;;5095608;27;43453;-76
2023/05/22 04:22:50;;;;;;;;;;;22.20;58.30;;;;;;5105080;27;43047;-77
2023/05/22 04:25:16;;;;;;;;;;;22.20;58.40;;;;;;5098434;27;43545;-80
2023/05/22 04:27:41;;;;;;;;;;;22.20;57.60;;;;;;5094140;27;43643;-77
2023/05/22 04:30:07;;;;;;;;;;;22.20;57.30;;;;;;5090599;27;43484;-77
2023/05/22 04:32:35;;;;;;;;;;;22.20;57.40;;;;;;5091009;27;42993;-77
2023/05/22 04:35:00;;;;;;;;;;;22.10;57.40;;;;;;5093937;27;42979;-77
2023/05/22 04:37:27;;;;;;;;;;;22.20;57.10;;;;;;5085563;27;43213;-76
2023/05/22 04:39:56;;;;;;;;;;;22.10;57.40;;;;;;5085426;27;44484;-77
2023/05/22 04:42:24;;;;;;;;;;;22.20;57.30;;;;;;5074640;28;43093;-78
2023/05/22 04:44:51;;;;;;;;;;;22.10;57.20;;;;;;5064728;28;44682;-78
2023/05/22 04:47:18;;;;;;;;;;;22.20;57.40;;;;;;5076612;27;43111;-78
2023/05/22 04:49:44;;;;;;;;;;;22.20;57.10;;;;;;5085866;27;43542;-76
2023/05/22 04:52:10;;;;;;;;;;;22.20;57.40;;;;;;5093318;27;43054;-76
2023/05/22 04:54:36;;;;;;;;;;;22.10;57.30;;;;;;5095586;27;43380;-76
2023/05/22 04:57:03;;;;;;;;;;;22.10;57.00;;;;;;5082391;27;43171;-75
2023/05/22 04:59:30;;;;;;;;;;;22.10;57.30;;;;;;5086745;27;43402;-77
2023/05/22 05:01:56;;;;;;;;;;;22.10;57.90;;;;;;5084754;27;42969;-75
2023/05/22 05:04:21;;;;;;;;;;;22.10;58.00;;;;;;5082861;27;42845;-77
2023/05/22 05:06:47;;;;;;;;;;;21.90;57.70;;;;;;5075066;27;43027;-76
2023/05/22 05:09:12;;;;;;;;;;;22.20;57.60;;;;;;5083609;27;42951;-76
2023/05/22 05:11:38;;;;;;;;;;;22.20;58.30;;;;;;5087506;27;42974;-75
2023/05/22 05:14:03;;;;;;;;;;;22.20;58.30;;;;;;5100109;27;43874;-75
2023/05/22 05:16:29;;;;;;;;;;;22.30;58.20;;;;;;5091905;27;43111;-76
2023/05/22 05:18:55;;;;;;;;;;;22.20;57.40;;;;;;5088298;27;43129;-76
2023/05/22 05:21:21;;;;;;;;;;;22.20;58.10;;;;;;5103872;27;43111;-76
2023/05/22 05:23:47;;;;;;;;;;;22.20;57.40;;;;;;5089057;27;43061;-76
2023/05/22 05:26:12;;;;;;;;;;;22.20;57.90;;;;;;5099612;27;43364;-88
2023/05/22 05:28:38;;;;;;;;;;;22.30;58.20;;;;;;5092790;27;43706;-88
2023/05/22 05:31:03;;;;;;;;;;;22.10;57.70;;;;;;5107262;27;42992;-81
2023/05/22 05:33:29;;;;;;;;;;;22.20;57.60;;;;;;5095372;27;43454;-82
2023/05/22 05:35:55;;;;;;;;;;;22.20;57.60;;;;;;5094507;27;42981;-79
2023/05/22 05:38:20;;;;;;;;;;;22.20;57.70;;;;;;5087416;27;42985;-85
2023/05/22 05:40:47;;;;;;;;;;;22.30;57.70;;;;;;5087633;27;43215;-86
2023/05/22 05:43:15;;;;;;;;;;;22.20;57.60;;;;;;5090337;27;43197;-82
2023/05/22 05:45:42;;;;;;;;;;;22.20;57.80;;;;;;5103906;27;42980;-82
2023/05/22 05:48:08;;;;;;;;;;;22.20;57.80;;;;;;5105395;27;44457;-82
2023/05/22 05:50:33;;;;;;;;;;;22.20;58.20;;;;;;5106952;27;42954;-88
2023/05/22 05:53:00;;;;;;;;;;;22.20;58.10;;;;;;5106046;27;43310;-85
2023/05/22 05:55:25;;;;;;;;;;;22.20;58.20;;;;;;5097645;27;42914;-80
2023/05/22 05:57:51;;;;;;;;;;;22.20;58.10;;;;;;5087446;27;42926;-76
2023/05/22 06:00:16;;;;;;;;;;;22.20;58.20;;;;;;5087466;27;42880;-83
2023/05/22 06:02:42;;;;;;;;;;;22.20;58.10;;;;;;5094906;27;43040;-83
2023/05/22 06:05:08;;;;;;;;;;;22.20;58.00;;;;;;5098563;27;43025;-85
2023/05/22 06:07:36;;;;;;;;;;;22.30;57.70;;;;;;5088116;27;42992;-85
2023/05/22 06:10:03;;;;;;;;;;;22.20;57.60;;;;;;5085978;27;42946;-85
2023/05/22 06:12:29;;;;;;;;;;;22.20;57.20;;;;;;5091710;27;44670;-77
2023/05/22 06:14:54;;;;;;;;;;;22.20;57.20;;;;;;5106641;27;42861;-79
2023/05/22 06:17:20;;;;;;;;;;;22.20;57.30;;;;;;5088288;27;43412;-78
2023/05/22 06:19:46;;;;;;;;;;;22.20;57.10;;;;;;5105348;27;42924;-82
2023/05/22 06:22:11;;;;;;;;;;;22.30;57.30;;;;;;5100955;27;43392;-77
2023/05/22 06:24:37;;;;;;;;;;;22.30;57.20;;;;;;5105090;27;42956;-78
2023/05/22 06:27:02;;;;;;;;;;;22.30;57.00;;;;;;5081846;27;44671;-86
2023/05/22 06:29:28;;;;;;;;;;;22.20;57.00;;;;;;5094943;27;42953;-81
2023/05/22 06:31:53;;;;;;;;;;;22.30;57.00;;;;;;5089648;27;43997;-87
2023/05/22 06:34:21;;;;;;;;;;;22.30;56.80;;;;;;5097431;27;42953;-84
2023/05/22 06:36:49;;;;;;;;;;;22.20;56.90;;;;;;5091327;27;42997;-77
2023/05/22 06:39:15;;;;;;;;;;;22.30;56.70;;;;;;5096080;27;43121;-84
2023/05/22 06:41:40;;;;;;;;;;;22.20;56.60;;;;;;5097676;27;44260;-84
2023/05/22 06:44:06;;;;;;;;;;;22.30;56.90;;;;;;5101271;27;42839;-86
2023/05/22 06:46:31;;;;;;;;;;;22.20;56.00;;;;;;5093655;27;42945;-85
2023/05/22 06:48:57;;;;;;;;;;;22.20;55.90;;;;;;5094186;27;43024;-85
2023/05/22 06:51:23;;;;;;;;;;;22.30;56.10;;;;;;5093052;27;43609;-85
2023/05/22 06:53:48;;;;;;;;;;;22.20;55.80;;;;;;5089278;27;43003;-84
2023/05/22 06:56:14;;;;;;;;;;;22.20;55.60;;;;;;5074978;27;43804;-83
2023/05/22 06:58:40;;;;;;;;;;;22.20;55.10;;;;;;5094397;27;43136;-84
2023/05/22 07:01:06;;;;;;;;;;;22.20;55.20;;;;;;5096401;27;43444;-84
2023/05/22 07:03:32;;;;;;;;;;;22.30;56.00;;;;;;5093777;27;42897;-84
2023/05/22 07:05:58;;;;;;;;;;;22.30;56.00;;;;;;5094296;27;43031;-82
2023/05/22 07:08:24;;;;;;;;;;;22.20;55.50;;;;;;5090026;27;42974;-83
2023/05/22 07:10:50;;;;;;;;;;;22.20;55.40;;;;;;5095450;27;42977;-77
2023/05/22 07:13:16;;;;;;;;;;;22.90;55.90;;;;;;5099500;27;42913;-76
2023/05/22 07:15:42;;;;;;;;;;;22.20;55.80;;;;;;5096659;27;42870;-79
2023/05/22 07:18:08;;;;;;;;;;;22.30;55.60;;;;;;5072080;27;43006;-76
2023/05/22 07:20:34;;;;;;;;;;;22.30;55.90;;;;;;5093251;27;43687;-76
2023/05/22 07:23:00;;;;;;;;;;;22.30;55.90;;;;;;5100156;27;43376;-77
2023/05/22 07:25:25;;;;;;;;;;;22.30;55.70;;;;;;5097835;27;43001;-78
2023/05/22 07:27:51;;;;;;;;;;;22.30;55.70;;;;;;5090607;27;42958;-82
2023/05/22 07:30:16;;;;;;;;;;;22.30;55.40;;;;;;5097687;27;43908;-77
2023/05/22 07:32:42;;;;;;;;;;;22.20;55.20;;;;;;5095162;27;44010;-78
2023/05/22 07:35:09;;;;;;;;;;;22.10;55.10;;;;;;5089793;27;43473;-75
2023/05/22 07:37:36;;;;;;;;;;;22.20;55.00;;;;;;5096448;27;43103;-77
2023/05/22 07:40:04;;;;;;;;;;;22.30;54.70;;;;;;5096714;27;43370;-82
2023/05/22 07:42:29;;;;;;;;;;;22.20;54.60;;;;;;5095324;27;43021;-80
2023/05/22 07:44:55;;;;;;;;;;;22.20;54.70;;;;;;5092402;27;44187;-82
2023/05/22 07:47:20;;;;;;;;;;;22.10;53.80;;;;;;5099071;27;43064;-79
2023/05/22 07:49:46;;;;;;;;;;;22.20;53.80;;;;;;5079223;27;43063;-84
2023/05/22 07:52:11;;;;;;;;;;;22.20;54.30;;;;;;5087335;27;43000;-76
2023/05/22 07:54:37;;;;;;;;;;;22.20;53.50;;;;;;5088849;27;43012;-77
2023/05/22 07:57:02;;;;;;;;;;;22.20;54.30;;;;;;5086132;27;43094;-76
2023/05/22 07:59:28;;;;;;;;;;;22.30;53.60;;;;;;5084800;27;43519;-81
2023/05/22 08:01:53;;;;;;;;;;;22.20;54.00;;;;;;5096195;27;43108;-78
2023/05/22 08:04:19;;;;;;;;;;;22.20;54.10;;;;;;5089523;27;43551;-82
2023/05/22 08:06:44;;;;;;;;;;;22.20;53.80;;;;;;5101372;27;43053;-78
2023/05/22 08:09:10;;;;;;;;;;;22.20;53.90;;;;;;5094774;27;43017;-81
2023/05/22 08:11:38;;;;;;;;;;;22.20;53.60;;;;;;5093345;27;42998;-79
2023/05/22 08:14:04;;;;;;;;;;;22.20;53.30;;;;;;5091416;27;43487;-81
2023/05/22 08:16:30;;;;;;;;;;;22.20;53.30;;;;;;5093335;27;43042;-81
2023/05/22 08:18:56;;;;;;;;;;;22.20;53.50;;;;;;5097821;27;42988;-82
2023/05/22 08:21:21;;;;;;;;;;;22.20;52.80;;;;;;5090053;27;42949;-77
2023/05/22 08:23:47;;;;;;;;;;;22.20;53.20;;;;;;5090820;27;43567;-80
2023/05/22 08:26:13;;;;;;;;;;;22.20;52.10;;;;;;5095247;27;43392;-81
2023/05/22 08:28:42;;;;;;;;;;;22.20;52.60;;;;;;5098991;27;43934;-85
2023/05/22 08:31:11;;;;;;;;;;;22.20;52.50;;;;;;5098753;27;43012;-86
2023/05/22 08:33:37;;;;;;;;;;;22.20;52.20;;;;;;5091493;27;43014;-86
2023/05/22 08:36:02;;;;;;;;;;;22.20;51.80;;;;;;5096933;27;42948;-87
2023/05/22 08:38:28;;;;;;;;;;;22.10;51.70;;;;;;5097748;27;42969;-81
2023/05/22 08:40:56;;;;;;;;;;;22.10;51.10;;;;;;5100149;27;42963;-81
2023/05/22 08:43:22;;;;;;;;;;;22.10;51.50;;;;;;5101006;27;43974;-86
2023/05/22 08:45:54;;;;;;;;;;;22.10;51.70;;;;;;5096271;27;43198;-83
2023/05/22 08:48:22;;;;;;;;;;;23.10;51.50;;;;;;5089265;27;43641;-77
2023/05/22 08:50:55;;;;;;;;;;;22.20;51.50;;;;;;5102005;27;42958;-76
2023/05/22 08:53:22;;;;;;;;;;;22.20;51.40;;;;;;5091951;27;43548;-82
2023/05/22 08:55:48;;;;;;;;;;;22.30;52.20;;;;;;5103373;27;43092;-78
2023/05/22 08:58:14;;;;;;;;;;;22.20;51.90;;;;;;5094376;27;42976;-76
2023/05/22 09:00:40;;;;;;;;;;;22.20;51.70;;;;;;5089586;27;42999;-82
2023/05/22 09:03:08;;;;;;;;;;;22.20;51.70;;;;;;5089975;27;43521;-81
2023/05/22 09:05:35;;;;;;;;;;;22.20;51.80;;;;;;5091078;27;43078;-82
2023/05/22 09:08:03;;;;;;;;;;;22.20;51.30;;;;;;5100308;27;42843;-82
2023/05/22 09:10:28;;;;;;;;;;;22.20;51.20;;;;;;5098881;27;42992;-83
2023/05/22 09:13:00;;;;;;;;;;;22.20;51.10;;;;;;5100612;27;43676;-84
2023/05/22 09:15:27;;;;;;;;;;;22.20;50.60;;;;;;5099398;27;42865;-83
2023/05/22 09:17:53;;;;;;;;;;;22.20;51.10;;;;;;5104831;27;44159;-88
2023/05/22 09:20:18;;;;;;;;;;;22.20;50.40;;;;;;5093996;27;43107;-76
2023/05/22 09:22:45;;;;;;;;;;;22.20;50.80;;;;;;5080318;27;43082;-83
2023/05/22 09:25:16;;;;;;;;;;;22.20;50.50;;;;;;5100646;27;43071;-84
2023/05/22 09:27:43;;;;;;;;;;;22.20;50.30;;;;;;5096218;27;43476;-85
2023/05/22 09:30:09;;;;;;;;;;;22.20;50.40;;;;;;5090822;27;43009;-76
2023/05/22 09:32:35;;;;;;;;;;;22.30;50.20;;;;;;5085508;27;43554;-85
2023/05/22 09:35:01;;;;;;;;;;;22.20;50.40;;;;;;5097339;27;43962;-85
2023/05/22 09:37:27;;;;;;;;;;;22.20;50.30;;;;;;5093281;27;42996;-83
2023/05/22 09:39:53;;;;;;;;;;;22.30;50.30;;;;;;5098580;27;43094;-83
2023/05/22 09:42:19;;;;;;;;;;;22.20;50.20;;;;;;5099650;27;43059;-85
2023/05/22 09:44:48;;;;;;;;;;;22.20;50.30;;;;;;5095901;27;43077;-77
2023/05/22 09:47:14;;;;;;;;;;;22.30;50.20;;;;;;5101596;27;43005;-83
2023/05/22 09:49:40;;;;;;;;;;;22.30;50.50;;;;;;5098907;27;43034;-92
2023/05/22 09:52:07;;;;;;;;;;;22.30;50.40;;;;;;5102396;27;42960;-91
2023/05/22 09:54:33;;;;;;;;;;;22.30;50.50;;;;;;5091509;27;43286;-91
2023/05/22 09:56:59;;;;;;;;;;;22.30;50.30;;;;;;5101352;27;42938;-77
2023/05/22 09:59:28;;;;;;;;;;;22.30;50.40;;;;;;5100997;27;43109;-86
2023/05/22 10:01:55;;;;;;;;;;;22.30;50.30;;;;;;5101087;27;44531;-77
2023/05/22 10:04:21;;;;;;;;;;;22.30;50.10;;;;;;5101440;27;42954;-83
2023/05/22 10:06:50;;;;;;;;;;;22.60;50.60;;;;;;5103150;27;42939;-85
2023/05/22 10:09:17;;;;;;;;;;;22.30;50.50;;;;;;5104916;27;43026;-79
2023/05/22 10:11:43;;;;;;;;;;;22.30;50.60;;;;;;5103200;27;43500;-86
2023/05/22 10:14:09;;;;;;;;;;;22.30;50.30;;;;;;5102413;27;43228;-85
2023/05/22 10:16:37;;;;;;;;;;;22.30;50.40;;;;;;5102092;27;44451;-85
2023/05/22 10:19:02;;;;;;;;;;;22.30;50.20;;;;;;5096414;27;43290;-84
2023/05/22 10:21:31;;;;;;;;;;;22.30;50.00;;;;;;5097532;27;43022;-80
2023/05/22 10:23:58;;;;;;;;;;;22.30;50.30;;;;;;5098939;27;43015;-83
2023/05/22 10:26:24;;;;;;;;;;;22.40;50.20;;;;;;5095729;27;43001;-77
2023/05/22 10:29:01;;;;;;;;;;;22.30;49.70;;;;;;5105015;27;42988;-81
2023/05/22 10:31:34;;;;;;;;;;;22.30;49.30;;;;;;5097317;27;43042;-77
2023/05/22 10:34:01;;;;;;;;;;;22.30;49.40;;;;;;5102986;27;43276;-81
2023/05/22 10:36:44;;;;;;;;;;;22.40;49.10;;;;;;5095046;27;43323;-81
2023/05/22 10:39:12;;;;;;;;;;;22.40;48.60;;;;;;5095186;27;42967;-76
2023/05/22 10:41:38;;;;;;;;;;;22.40;49.10;;;;;;5086824;27;42914;-78
2023/05/22 10:44:04;;;;;;;;;;;22.40;48.80;;;;;;5100081;27;43020;-81
2023/05/22 10:46:33;;;;;;;;;;;22.40;49.00;;;;;;5090978;27;43069;-75
2023/05/22 10:48:59;;;;;;;;;;;22.40;48.70;;;;;;5100202;27;43035;-81
2023/05/22 10:51:24;;;;;;;;;;;22.40;49.00;;;;;;5096044;27;44303;-86
2023/05/22 10:53:52;;;;;;;;;;;22.40;48.80;;;;;;5093515;27;43152;-82
2023/05/22 10:56:17;;;;;;;;;;;22.50;48.40;;;;;;5100149;27;43767;-77
2023/05/22 10:59:06;;;;;;;;;;;22.50;48.50;;;;;;5102329;27;42997;-82
2023/05/22 11:01:36;;;;;;;;;;;22.40;48.20;;;;;;5090192;27;43593;-83
2023/05/22 11:04:05;;;;;;;;;;;22.40;48.30;;;;;;5104865;27;42914;-80
2023/05/22 11:06:47;;;;;;;;;;;22.40;48.20;;;;;;5098055;27;43639;-78
2023/05/22 11:09:31;;;;;;;;;;;22.50;48.20;;;;;;5092837;27;42965;-82
2023/05/22 11:12:19;;;;;;;;;;;22.50;48.50;;;;;;5093642;27;43604;-81
2023/05/22 11:14:55;;;;;;;;;;;22.50;48.60;;;;;;5086542;27;42973;-83
2023/05/22 11:17:24;;;;;;;;;;;22.50;48.60;;;;;;5099372;27;43491;-83
2023/05/22 11:19:57;;;;;;;;;;;22.50;48.90;;;;;;5086528;27;43288;-75
2023/05/22 11:22:28;;;;;;;;;;;22.50;49.10;;;;;;5088708;27;43126;-80
2023/05/22 11:24:53;;;;;;;;;;;22.50;49.50;;;;;;5097894;27;42981;-80
2023/05/22 11:27:19;;;;;;;;;;;22.60;49.80;;;;;;5102228;27;42860;-76
2023/05/22 11:29:47;;;;;;;;;;;22.60;50.00;;;;;;5092736;27;58565;-77
2023/05/22 11:32:18;;;;;;;;;;;22.70;50.20;;;;;;5090357;27;43675;-78
2023/05/22 11:34:45;;;;;;;;;;;22.60;50.30;;;;;;5092081;27;43044;-79
2023/05/22 11:37:10;;;;;;;;;;;22.70;50.50;;;;;;5105045;27;43817;-79
2023/05/22 11:39:36;;;;;;;;;;;22.70;50.50;;;;;;5093045;27;42981;-79
2023/05/22 11:42:03;;;;;;;;;;;22.60;50.70;;;;;;5097618;27;43599;-77
2023/05/22 11:44:28;;;;;;;;;;;22.60;50.80;;;;;;5102106;27;42940;-78
2023/05/22 11:46:54;;;;;;;;;;;22.70;51.30;;;;;;5088675;27;42917;-77
2023/05/22 11:49:22;;;;;;;;;;;22.70;51.10;;;;;;5103627;27;43609;-81
2023/05/22 11:51:48;;;;;;;;;;;23.10;51.40;;;;;;5096481;27;43429;-78
2023/05/22 11:54:16;;;;;;;;;;;22.70;51.30;;;;;;5097343;27;43143;-83
2023/05/22 11:56:43;;;;;;;;;;;22.70;51.30;;;;;;5098150;27;44283;-81
2023/05/22 11:59:08;;;;;;;;;;;22.60;51.20;;;;;;5092790;27;43039;-78
2023/05/22 12:01:35;;;;;;;;;;;22.70;51.40;;;;;;5097514;27;44184;-77
2023/05/22 12:04:01;;;;;;;;;;;22.70;51.50;;;;;;5096144;27;44058;-78
2023/05/22 12:06:26;;;;;;;;;;;22.70;51.50;;;;;;5096213;27;43793;-78
2023/05/22 12:08:52;;;;;;;;;;;22.70;51.80;;;;;;5097054;27;43149;-78
2023/05/22 12:11:18;;;;;;;;;;;22.70;51.70;;;;;;5104471;27;43047;-82
2023/05/22 12:13:44;;;;;;;;;;;22.60;51.80;;;;;;5081117;27;42974;-82
2023/05/22 12:16:16;;;;;;;;;;;22.60;51.40;;;;;;5084925;27;43096;-83
2023/05/22 12:18:42;;;;;;;;;;;22.60;50.00;;;;;;5095944;27;43079;-84
2023/05/22 12:21:09;;;;;;;;;;;22.50;49.70;;;;;;5102681;27;43443;-83
2023/05/22 12:23:34;;;;;;;;;;;22.50;49.00;;;;;;5088236;27;43151;-82
2023/05/22 12:26:07;;;;;;;;;;;22.50;49.00;;;;;;5098584;27;43535;-81
2023/05/22 12:28:32;;;;;;;;;;;22.50;48.60;;;;;;5091823;27;42990;-85
2023/05/22 12:30:58;;;;;;;;;;;22.50;48.80;;;;;;5092081;27;43218;-86
2023/05/22 12:33:27;;;;;;;;;;;22.60;49.00;;;;;;5093098;27;42967;-85
2023/05/22 12:35:52;;;;;;;;;;;22.60;48.60;;;;;;5095072;27;43046;-80
2023/05/22 12:38:21;;;;;;;;;;;22.60;48.80;;;;;;5096182;27;42989;-86
2023/05/22 12:40:48;;;;;;;;;;;22.60;49.10;;;;;;5099426;27;43652;-86
2023/05/22 12:43:13;;;;;;;;;;;22.60;48.50;;;;;;5073087;27;43216;-85
2023/05/22 12:45:41;;;;;;;;;;;22.60;48.80;;;;;;5086512;27;43194;-85
2023/05/22 12:48:07;;;;;;;;;;;22.60;48.40;;;;;;5091681;27;42970;-84
2023/05/22 12:50:33;;;;;;;;;;;22.60;48.70;;;;;;5095160;27;43383;-86
2023/05/22 12:53:00;;;;;;;;;;;22.60;48.10;;;;;;5090444;27;43043;-83
2023/05/22 12:55:26;;;;;;;;;;;22.60;48.10;;;;;;5103430;27;43083;-85
2023/05/22 12:57:52;;;;;;;;;;;22.60;48.40;;;;;;5093906;27;43158;-86
2023/05/22 13:00:17;;;;;;;;;;;22.60;48.40;;;;;;5093739;27;43051;-85
2023/05/22 13:02:45;;;;;;;;;;;22.60;48.20;;;;;;5095772;27;43003;-85
2023/05/22 13:05:11;;;;;;;;;;;22.60;48.20;;;;;;5093863;27;43973;-84
2023/05/22 13:07:36;;;;;;;;;;;22.70;48.10;;;;;;5078082;27;44589;-83
2023/05/22 13:10:03;;;;;;;;;;;22.60;48.00;;;;;;5093450;27;43808;-85
2023/05/22 13:12:30;;;;;;;;;;;22.70;48.10;;;;;;5092082;27;43054;-84
2023/05/22 13:14:57;;;;;;;;;;;22.60;48.20;;;;;;5096540;27;43369;-82
2023/05/22 13:17:22;;;;;;;;;;;22.70;48.40;;;;;;5095926;27;43019;-85
2023/05/22 13:19:48;;;;;;;;;;;22.70;48.30;;;;;;5070669;28;44416;-84
2023/05/22 13:22:13;;;;;;;;;;;22.70;49.00;;;;;;5074176;28;43175;-84
2023/05/22 13:24:39;;;;;;;;;;;22.70;48.70;;;;;;5076837;28;43356;-83
2023/05/22 13:27:05;;;;;;;;;;;22.70;48.60;;;;;;5073440;28;42956;-85
2023/05/22 13:29:31;;;;;;;;;;;22.70;48.30;;;;;;5072456;28;43526;-84
2023/05/22 13:31:56;;;;;;;;;;;22.70;48.10;;;;;;5059929;28;44428;-80
2023/05/22 13:34:22;;;;;;;;;;;22.70;47.70;;;;;;5068825;28;44151;-85
2023/05/22 13:36:47;;;;;;;;;;;22.70;47.50;;;;;;5063378;28;42940;-86
2023/05/22 13:39:13;;;;;;;;;;;22.70;47.30;;;;;;5067738;28;42994;-78
2023/05/22 13:41:38;;;;;;;;;;;22.70;47.00;;;;;;5068734;28;43115;-85
2023/05/22 13:44:04;;;;;;;;;;;22.70;47.20;;;;;;5076900;28;42946;-81
2023/05/22 13:46:29;;;;;;;;;;;22.80;47.20;;;;;;5076436;27;43226;-82
2023/05/22 13:48:55;;;;;;;;;;;22.70;47.50;;;;;;5079394;28;43244;-85
2023/05/22 13:51:20;;;;;;;;;;;22.70;48.00;;;;;;5071816;28;43134;-86
2023/05/22 13:53:46;;;;;;;;;;;22.70;47.80;;;;;;5078048;28;42844;-85
2023/05/22 13:56:11;;;;;;;;;;;22.80;47.80;;;;;;5079420;28;42985;-83
2023/05/22 13:58:37;;;;;;;;;;;22.90;47.60;;;;;;5069765;28;43834;-83
2023/05/22 14:01:02;;;;;;;;;;;22.70;47.30;;;;;;5078858;28;43017;-85
2023/05/22 14:03:28;;;;;;;;;;;22.70;46.00;;;;;;5074338;28;43054;-80
2023/05/22 14:05:53;;;;;;;;;;;22.80;46.20;;;;;;5067899;28;42991;-85
2023/05/22 14:08:19;;;;;;;;;;;23.10;46.20;;;;;;5065422;28;43035;-85
2023/05/22 14:10:44;;;;;;;;;;;22.80;45.80;;;;;;5083361;28;43121;-83
2023/05/22 14:13:10;;;;;;;;;;;22.80;45.70;;;;;;5077716;28;43106;-84